sensor_id;sensor_type;location;lat;lon;timestamp;pressure;altitude;pressure_sealevel;temperature;humidity
13705;BME280;6924;52.122;9.952;2023-07-20T00:01:29;100216.44;;;17.32;94.19
13705;BME280;6924;52.122;9.952;2023-07-20T00:03:56;100218.94;;;17.34;94.29
13705;BME280;6924;52.122;9.952;2023-07-20T00:06:22;100217.28;;;17.33;94.16
13705;BME280;6924;52.122;9.952;2023-07-20T00:08:50;100223.38;;;17.31;93.86
13705;BME280;6924;52.122;9.952;2023-07-20T00:11:17;100220.50;;;17.31;93.97
13705;BME280;6924;52.122;9.952;2023-07-20T00:13:45;100219.22;;;17.29;94.03
13705;BME280;6924;52.122;9.952;2023-07-20T00:16:11;100222.91;;;17.29;93.78
13705;BME280;6924;52.122;9.952;2023-07-20T00:18:38;100217.19;;;17.29;94.00
13705;BME280;6924;52.122;9.952;2023-07-20T00:21:04;100214.22;;;17.26;94.09
13705;BME280;6924;52.122;9.952;2023-07-20T00:23:31;100211.56;;;17.17;94.97
13705;BME280;6924;52.122;9.952;2023-07-20T00:25:57;100207.41;;;17.14;95.80
13705;BME280;6924;52.122;9.952;2023-07-20T00:28:24;100209.16;;;17.03;96.93
13705;BME280;6924;52.122;9.952;2023-07-20T00:30:52;100197.25;;;17.01;97.03
13705;BME280;6924;52.122;9.952;2023-07-20T00:33:18;100202.63;;;17.03;97.05
13705;BME280;6924;52.122;9.952;2023-07-20T00:35:45;100205.38;;;16.99;97.88
13705;BME280;6924;52.122;9.952;2023-07-20T00:38:11;100200.88;;;16.98;97.52
13705;BME280;6924;52.122;9.952;2023-07-20T00:40:38;100195.78;;;16.91;97.91
13705;BME280;6924;52.122;9.952;2023-07-20T00:43:05;100196.97;;;16.90;97.88
13705;BME280;6924;52.122;9.952;2023-07-20T00:45:33;100194.13;;;16.90;98.08
13705;BME280;6924;52.122;9.952;2023-07-20T00:48:01;100198.25;;;16.93;97.84
13705;BME280;6924;52.122;9.952;2023-07-20T00:50:28;100197.91;;;16.94;97.89
13705;BME280;6924;52.122;9.952;2023-07-20T00:52:55;100192.09;;;16.91;97.54
13705;BME280;6924;52.122;9.952;2023-07-20T00:55:24;100193.28;;;16.90;97.73
13705;BME280;6924;52.122;9.952;2023-07-20T00:57:51;100197.78;;;16.91;97.69
13705;BME280;6924;52.122;9.952;2023-07-20T01:00:17;100197.78;;;16.91;97.41
13705;BME280;6924;52.122;9.952;2023-07-20T01:02:44;100203.16;;;16.92;96.93
13705;BME280;6924;52.122;9.952;2023-07-20T01:05:13;100197.38;;;16.89;96.87
13705;BME280;6924;52.122;9.952;2023-07-20T01:07:46;100203.72;;;16.82;97.17
13705;BME280;6924;52.122;9.952;2023-07-20T01:10:25;100201.28;;;16.84;97.20
13705;BME280;6924;52.122;9.952;2023-07-20T01:12:55;100204.41;;;16.79;97.25
13705;BME280;6924;52.122;9.952;2023-07-20T01:15:21;100204.66;;;16.74;97.73
13705;BME280;6924;52.122;9.952;2023-07-20T01:17:48;100208.34;;;16.74;98.14
13705;BME280;6924;52.122;9.952;2023-07-20T01:20:19;100219.88;;;16.78;98.01
13705;BME280;6924;52.122;9.952;2023-07-20T01:23:12;100212.78;;;16.72;98.53
13705;BME280;6924;52.122;9.952;2023-07-20T01:26:02;100215.44;;;16.65;98.85
13705;BME280;6924;52.122;9.952;2023-07-20T01:29:08;100215.94;;;16.55;97.03
13705;BME280;6924;52.122;9.952;2023-07-20T01:31:41;100212.44;;;16.45;96.53
13705;BME280;6924;52.122;9.952;2023-07-20T01:34:08;100215.75;;;16.47;97.12
13705;BME280;6924;52.122;9.952;2023-07-20T01:36:38;100214.00;;;16.43;97.24
13705;BME280;6924;52.122;9.952;2023-07-20T01:39:06;100206.19;;;16.27;96.68
13705;BME280;6924;52.122;9.952;2023-07-20T01:41:33;100205.47;;;16.30;95.99
13705;BME280;6924;52.122;9.952;2023-07-20T01:44:00;100198.19;;;16.33;95.58
13705;BME280;6924;52.122;9.952;2023-07-20T01:46:27;100205.94;;;16.32;96.54
13705;BME280;6924;52.122;9.952;2023-07-20T01:48:55;100200.84;;;16.26;96.64
13705;BME280;6924;52.122;9.952;2023-07-20T01:51:22;100194.03;;;16.30;97.03
13705;BME280;6924;52.122;9.952;2023-07-20T01:53:47;100207.84;;;16.28;96.61
13705;BME280;6924;52.122;9.952;2023-07-20T01:56:14;100201.59;;;16.23;96.30
13705;BME280;6924;52.122;9.952;2023-07-20T01:58:40;100201.19;;;16.24;96.45
13705;BME280;6924;52.122;9.952;2023-07-20T02:01:07;100212.47;;;16.33;96.77
13705;BME280;6924;52.122;9.952;2023-07-20T02:03:33;100213.28;;;16.33;96.65
13705;BME280;6924;52.122;9.952;2023-07-20T02:06:02;100213.75;;;16.36;97.06
13705;BME280;6924;52.122;9.952;2023-07-20T02:08:28;100213.88;;;16.39;97.15
13705;BME280;6924;52.122;9.952;2023-07-20T02:10:55;100206.97;;;16.40;96.54
13705;BME280;6924;52.122;9.952;2023-07-20T02:13:21;100202.88;;;16.25;96.71
13705;BME280;6924;52.122;9.952;2023-07-20T02:15:48;100202.09;;;16.13;97.99
13705;BME280;6924;52.122;9.952;2023-07-20T02:18:17;100199.97;;;16.09;97.87
13705;BME280;6924;52.122;9.952;2023-07-20T02:20:43;100197.81;;;16.06;97.94
13705;BME280;6924;52.122;9.952;2023-07-20T02:23:11;100210.44;;;16.05;97.96
13705;BME280;6924;52.122;9.952;2023-07-20T02:25:38;100215.13;;;16.14;97.56
13705;BME280;6924;52.122;9.952;2023-07-20T02:28:06;100214.91;;;16.19;97.09
13705;BME280;6924;52.122;9.952;2023-07-20T02:30:33;100219.06;;;16.21;97.54
13705;BME280;6924;52.122;9.952;2023-07-20T02:32:59;100221.56;;;16.23;97.75
13705;BME280;6924;52.122;9.952;2023-07-20T02:35:26;100218.22;;;16.21;97.36
13705;BME280;6924;52.122;9.952;2023-07-20T02:37:52;100222.38;;;16.23;97.71
13705;BME280;6924;52.122;9.952;2023-07-20T02:40:20;100213.81;;;16.23;97.44
13705;BME280;6924;52.122;9.952;2023-07-20T02:42:46;100209.75;;;16.24;97.71
13705;BME280;6924;52.122;9.952;2023-07-20T02:45:13;100215.72;;;16.19;97.77
13705;BME280;6924;52.122;9.952;2023-07-20T02:47:39;100214.06;;;16.18;97.99
13705;BME280;6924;52.122;9.952;2023-07-20T02:50:08;100214.66;;;16.11;98.13
13705;BME280;6924;52.122;9.952;2023-07-20T02:52:35;100214.66;;;16.11;97.96
13705;BME280;6924;52.122;9.952;2023-07-20T02:55:01;100205.75;;;16.13;97.57
13705;BME280;6924;52.122;9.952;2023-07-20T02:57:29;100204.59;;;16.14;98.50
13705;BME280;6924;52.122;9.952;2023-07-20T02:59:56;100204.19;;;16.16;99.36
13705;BME280;6924;52.122;9.952;2023-07-20T03:02:22;100210.16;;;16.10;99.83
13705;BME280;6924;52.122;9.952;2023-07-20T03:04:49;100213.63;;;16.16;99.88
13705;BME280;6924;52.122;9.952;2023-07-20T03:07:15;100218.94;;;16.18;99.44
13705;BME280;6924;52.122;9.952;2023-07-20T03:09:42;100217.38;;;16.20;99.89
13705;BME280;6924;52.122;9.952;2023-07-20T03:12:09;100217.03;;;16.22;100.00
13705;BME280;6924;52.122;9.952;2023-07-20T03:14:37;100232.97;;;16.23;100.00
13705;BME280;6924;52.122;9.952;2023-07-20T03:17:07;100232.84;;;16.19;100.00
13705;BME280;6924;52.122;9.952;2023-07-20T03:19:34;100238.81;;;16.14;100.00
13705;BME280;6924;52.122;9.952;2023-07-20T03:22:01;100239.66;;;16.15;100.00
13705;BME280;6924;52.122;9.952;2023-07-20T03:24:27;100227.97;;;16.20;100.00
13705;BME280;6924;52.122;9.952;2023-07-20T03:26:54;100230.47;;;16.21;100.00
13705;BME280;6924;52.122;9.952;2023-07-20T03:29:20;100224.41;;;16.23;100.00
13705;BME280;6924;52.122;9.952;2023-07-20T03:31:48;100214.16;;;16.22;100.00
13705;BME280;6924;52.122;9.952;2023-07-20T03:34:15;100210.97;;;16.23;100.00
13705;BME280;6924;52.122;9.952;2023-07-20T03:36:42;100210.63;;;16.25;100.00
13705;BME280;6924;52.122;9.952;2023-07-20T03:39:08;100205.72;;;16.25;100.00
13705;BME280;6924;52.122;9.952;2023-07-20T03:41:35;100210.97;;;16.23;100.00
13705;BME280;6924;52.122;9.952;2023-07-20T03:44:02;100214.28;;;16.25;100.00
13705;BME280;6924;52.122;9.952;2023-07-20T03:46:29;100213.47;;;16.25;100.00
13705;BME280;6924;52.122;9.952;2023-07-20T03:48:57;100213.34;;;16.21;100.00
13705;BME280;6924;52.122;9.952;2023-07-20T03:51:24;100215.84;;;16.23;100.00
13705;BME280;6924;52.122;9.952;2023-07-20T03:53:50;100204.78;;;16.21;100.00
13705;BME280;6924;52.122;9.952;2023-07-20T03:56:17;100209.28;;;16.22;100.00
13705;BME280;6924;52.122;9.952;2023-07-20T03:58:44;100204.31;;;16.19;100.00
13705;BME280;6924;52.122;9.952;2023-07-20T04:01:10;100201.94;;;16.21;100.00
13705;BME280;6924;52.122;9.952;2023-07-20T04:03:38;100199.91;;;16.22;100.00
13705;BME280;6924;52.122;9.952;2023-07-20T04:06:06;100217.84;;;16.22;100.00
13705;BME280;6924;52.122;9.952;2023-07-20T04:08:33;100206.81;;;16.21;100.00
13705;BME280;6924;52.122;9.952;2023-07-20T04:11:01;100202.75;;;16.22;100.00
13705;BME280;6924;52.122;9.952;2023-07-20T04:13:27;100208.13;;;16.23;100.00
13705;BME280;6924;52.122;9.952;2023-07-20T04:15:54;100215.00;;;16.22;100.00
13705;BME280;6924;52.122;9.952;2023-07-20T04:18:21;100205.25;;;16.23;100.00
13705;BME280;6924;52.122;9.952;2023-07-20T04:20:48;100209.28;;;16.22;100.00
13705;BME280;6924;52.122;9.952;2023-07-20T04:23:16;100208.59;;;16.25;100.00
13705;BME280;6924;52.122;9.952;2023-07-20T04:25:42;100209.19;;;16.19;100.00
13705;BME280;6924;52.122;9.952;2023-07-20T04:28:09;100215.00;;;16.22;100.00
13705;BME280;6924;52.122;9.952;2023-07-20T04:30:36;100226.41;;;16.22;100.00
13705;BME280;6924;52.122;9.952;2023-07-20T04:33:03;100227.72;;;16.25;100.00
13705;BME280;6924;52.122;9.952;2023-07-20T04:35:49;100236.19;;;16.21;100.00
13705;BME280;6924;52.122;9.952;2023-07-20T04:38:20;100243.91;;;16.21;100.00
13705;BME280;6924;52.122;9.952;2023-07-20T04:40:48;100240.13;;;16.17;100.00
13705;BME280;6924;52.122;9.952;2023-07-20T04:43:16;100234.41;;;16.17;100.00
13705;BME280;6924;52.122;9.952;2023-07-20T04:45:43;100239.38;;;16.20;100.00
13705;BME280;6924;52.122;9.952;2023-07-20T04:48:10;100231.44;;;16.13;100.00
13705;BME280;6924;52.122;9.952;2023-07-20T04:50:38;100238.22;;;16.08;100.00
13705;BME280;6924;52.122;9.952;2023-07-20T04:53:04;100242.88;;;16.01;100.00
13705;BME280;6924;52.122;9.952;2023-07-20T04:55:33;100245.50;;;15.94;100.00
13705;BME280;6924;52.122;9.952;2023-07-20T04:58:01;100257.38;;;15.96;100.00
13705;BME280;6924;52.122;9.952;2023-07-20T05:00:28;100250.03;;;15.95;100.00
13705;BME280;6924;52.122;9.952;2023-07-20T05:02:55;100259.75;;;15.94;100.00
13705;BME280;6924;52.122;9.952;2023-07-20T05:05:22;100262.72;;;15.97;100.00
13705;BME280;6924;52.122;9.952;2023-07-20T05:07:48;100256.69;;;15.99;100.00
13705;BME280;6924;52.122;9.952;2023-07-20T05:10:16;100255.50;;;15.87;100.00
13705;BME280;6924;52.122;9.952;2023-07-20T05:12:43;100267.75;;;15.88;100.00
13705;BME280;6924;52.122;9.952;2023-07-20T05:15:10;100264.75;;;15.84;100.00
13705;BME280;6924;52.122;9.952;2023-07-20T05:17:37;100269.91;;;15.79;100.00
13705;BME280;6924;52.122;9.952;2023-07-20T05:20:05;100270.59;;;15.76;100.00
13705;BME280;6924;52.122;9.952;2023-07-20T05:22:32;100277.13;;;15.76;100.00
13705;BME280;6924;52.122;9.952;2023-07-20T05:24:59;100261.44;;;15.70;100.00
13705;BME280;6924;52.122;9.952;2023-07-20T05:27:25;100271.06;;;15.65;100.00
13705;BME280;6924;52.122;9.952;2023-07-20T05:29:54;100261.06;;;15.59;100.00
13705;BME280;6924;52.122;9.952;2023-07-20T05:32:20;100258.22;;;15.59;100.00
13705;BME280;6924;52.122;9.952;2023-07-20T05:34:47;100270.31;;;15.56;100.00
13705;BME280;6924;52.122;9.952;2023-07-20T05:37:13;100261.66;;;15.53;100.00
13705;BME280;6924;52.122;9.952;2023-07-20T05:39:40;100261.66;;;15.53;100.00
13705;BME280;6924;52.122;9.952;2023-07-20T05:42:06;100260.72;;;15.48;100.00
13705;BME280;6924;52.122;9.952;2023-07-20T05:44:33;100262.75;;;15.48;100.00
13705;BME280;6924;52.122;9.952;2023-07-20T05:47:01;100264.88;;;15.51;100.00
13705;BME280;6924;52.122;9.952;2023-07-20T05:49:29;100269.59;;;15.47;100.00
13705;BME280;6924;52.122;9.952;2023-07-20T05:51:56;100268.78;;;15.46;100.00
13705;BME280;6924;52.122;9.952;2023-07-20T05:54:26;100271.16;;;15.44;100.00
13705;BME280;6924;52.122;9.952;2023-07-20T05:56:53;100272.91;;;15.24;100.00
13705;BME280;6924;52.122;9.952;2023-07-20T05:59:20;100278.00;;;15.19;100.00
13705;BME280;6924;52.122;9.952;2023-07-20T06:01:48;100281.81;;;15.11;100.00
13705;BME280;6924;52.122;9.952;2023-07-20T06:04:16;100286.50;;;14.94;100.00
13705;BME280;6924;52.122;9.952;2023-07-20T06:06:43;100293.88;;;14.95;100.00
13705;BME280;6924;52.122;9.952;2023-07-20T06:09:09;100283.63;;;14.94;100.00
13705;BME280;6924;52.122;9.952;2023-07-20T06:11:37;100290.38;;;14.90;100.00
13705;BME280;6924;52.122;9.952;2023-07-20T06:14:09;100297.47;;;14.83;100.00
13705;BME280;6924;52.122;9.952;2023-07-20T06:16:38;100289.88;;;14.75;100.00
13705;BME280;6924;52.122;9.952;2023-07-20T06:19:05;100299.25;;;14.76;100.00
13705;BME280;6924;52.122;9.952;2023-07-20T06:21:33;100291.19;;;14.78;100.00
13705;BME280;6924;52.122;9.952;2023-07-20T06:24:00;100299.72;;;14.78;100.00
13705;BME280;6924;52.122;9.952;2023-07-20T06:26:40;100299.16;;;14.84;100.00
13705;BME280;6924;52.122;9.952;2023-07-20T06:29:10;100302.97;;;14.88;100.00
13705;BME280;6924;52.122;9.952;2023-07-20T06:31:45;100301.28;;;14.87;100.00
13705;BME280;6924;52.122;9.952;2023-07-20T06:34:20;100296.66;;;14.83;100.00
13705;BME280;6924;52.122;9.952;2023-07-20T06:36:54;100301.28;;;14.87;100.00
13705;BME280;6924;52.122;9.952;2023-07-20T06:39:46;100309.75;;;14.96;100.00
13705;BME280;6924;52.122;9.952;2023-07-20T06:42:13;100303.22;;;14.96;100.00
13705;BME280;6924;52.122;9.952;2023-07-20T06:44:40;100320.81;;;14.98;100.00
13705;BME280;6924;52.122;9.952;2023-07-20T06:47:08;100308.47;;;14.73;100.00
13705;BME280;6924;52.122;9.952;2023-07-20T06:49:39;100305.03;;;14.67;100.00
13705;BME280;6924;52.122;9.952;2023-07-20T06:52:08;100305.28;;;14.53;100.00
13705;BME280;6924;52.122;9.952;2023-07-20T06:54:36;100322.94;;;14.67;100.00
13705;BME280;6924;52.122;9.952;2023-07-20T06:57:05;100320.91;;;14.68;100.00
13705;BME280;6924;52.122;9.952;2023-07-20T06:59:31;100301.88;;;14.81;100.00
13705;BME280;6924;52.122;9.952;2023-07-20T07:01:58;100308.69;;;14.88;100.00
13705;BME280;6924;52.122;9.952;2023-07-20T07:04:24;100312.03;;;15.03;100.00
13705;BME280;6924;52.122;9.952;2023-07-20T07:06:52;100304.31;;;15.03;100.00
13705;BME280;6924;52.122;9.952;2023-07-20T07:09:22;100303.88;;;15.14;100.00
13705;BME280;6924;52.122;9.952;2023-07-20T07:11:49;100309.25;;;15.27;100.00
13705;BME280;6924;52.122;9.952;2023-07-20T07:14:19;100310.94;;;15.41;100.00
13705;BME280;6924;52.122;9.952;2023-07-20T07:16:46;100310.00;;;15.37;100.00
13705;BME280;6924;52.122;9.952;2023-07-20T07:19:13;100320.28;;;15.29;100.00
13705;BME280;6924;52.122;9.952;2023-07-20T07:21:39;100337.03;;;15.31;100.00
13705;BME280;6924;52.122;9.952;2023-07-20T07:24:06;100331.25;;;15.39;100.00
13705;BME280;6924;52.122;9.952;2023-07-20T07:26:36;100332.09;;;15.52;100.00
13705;BME280;6924;52.122;9.952;2023-07-20T07:29:03;100321.88;;;15.51;100.00
13705;BME280;6924;52.122;9.952;2023-07-20T07:31:30;100331.03;;;15.57;100.00
13705;BME280;6924;52.122;9.952;2023-07-20T07:33:57;100332.31;;;15.47;100.00
13705;BME280;6924;52.122;9.952;2023-07-20T07:36:23;100333.88;;;15.57;100.00
13705;BME280;6924;52.122;9.952;2023-07-20T07:38:50;100334.38;;;15.59;100.00
13705;BME280;6924;52.122;9.952;2023-07-20T07:41:17;100335.03;;;15.31;100.00
13705;BME280;6924;52.122;9.952;2023-07-20T07:43:53;100342.50;;;15.36;100.00
13705;BME280;6924;52.122;9.952;2023-07-20T07:46:21;100351.00;;;15.57;100.00
13705;BME280;6924;52.122;9.952;2023-07-20T07:48:48;100353.38;;;15.55;100.00
13705;BME280;6924;52.122;9.952;2023-07-20T07:51:15;100352.53;;;15.66;100.00
13705;BME280;6924;52.122;9.952;2023-07-20T07:53:41;100346.13;;;15.69;100.00
13705;BME280;6924;52.122;9.952;2023-07-20T07:56:09;100351.00;;;15.69;100.00
13705;BME280;6924;52.122;9.952;2023-07-20T07:58:37;100348.78;;;15.75;100.00
13705;BME280;6924;52.122;9.952;2023-07-20T08:01:08;100346.84;;;15.66;100.00
13705;BME280;6924;52.122;9.952;2023-07-20T08:03:35;100345.06;;;15.62;100.00
13705;BME280;6924;52.122;9.952;2023-07-20T08:06:02;100342.94;;;15.71;100.00
13705;BME280;6924;52.122;9.952;2023-07-20T08:08:30;100347.59;;;15.88;100.00
13705;BME280;6924;52.122;9.952;2023-07-20T08:10:59;100347.97;;;15.99;100.00
13705;BME280;6924;52.122;9.952;2023-07-20T08:13:26;100342.63;;;16.09;100.00
13705;BME280;6924;52.122;9.952;2023-07-20T08:15:52;100350.66;;;16.20;100.00
13705;BME280;6924;52.122;9.952;2023-07-20T08:18:22;100343.28;;;16.31;100.00
13705;BME280;6924;52.122;9.952;2023-07-20T08:20:49;100345.78;;;16.20;100.00
13705;BME280;6924;52.122;9.952;2023-07-20T08:23:16;100344.91;;;16.44;99.16
13705;BME280;6924;52.122;9.952;2023-07-20T08:25:42;100346.13;;;16.31;96.25
13705;BME280;6924;52.122;9.952;2023-07-20T08:28:10;100355.41;;;16.28;100.00
13705;BME280;6924;52.122;9.952;2023-07-20T08:30:41;100345.50;;;16.50;98.96
13705;BME280;6924;52.122;9.952;2023-07-20T08:33:13;100359.44;;;16.51;93.55
13705;BME280;6924;52.122;9.952;2023-07-20T08:35:41;100361.69;;;16.58;95.78
13705;BME280;6924;52.122;9.952;2023-07-20T08:38:11;100371.06;;;16.59;95.60
13705;BME280;6924;52.122;9.952;2023-07-20T08:40:41;100371.75;;;16.68;94.89
13705;BME280;6924;52.122;9.952;2023-07-20T08:43:13;100366.56;;;16.45;97.23
13705;BME280;6924;52.122;9.952;2023-07-20T08:45:44;100371.34;;;16.41;95.29
13705;BME280;6924;52.122;9.952;2023-07-20T08:48:13;100367.53;;;16.37;92.70
13705;BME280;6924;52.122;9.952;2023-07-20T08:50:45;100362.75;;;16.53;93.29
13705;BME280;6924;52.122;9.952;2023-07-20T08:53:14;100359.78;;;16.50;99.75
13705;BME280;6924;52.122;9.952;2023-07-20T08:55:44;100368.13;;;16.43;94.60
13705;BME280;6924;52.122;9.952;2023-07-20T08:58:14;100368.25;;;16.34;93.54
13705;BME280;6924;52.122;9.952;2023-07-20T09:00:42;100372.66;;;16.31;94.13
13705;BME280;6924;52.122;9.952;2023-07-20T09:03:12;100371.69;;;16.40;93.69
13705;BME280;6924;52.122;9.952;2023-07-20T09:05:39;100368.31;;;16.62;96.76
13705;BME280;6924;52.122;9.952;2023-07-20T09:08:07;100368.63;;;16.85;95.00
13705;BME280;6924;52.122;9.952;2023-07-20T09:10:33;100369.16;;;17.03;93.33
13705;BME280;6924;52.122;9.952;2023-07-20T09:13:00;100369.47;;;17.14;89.57
13705;BME280;6924;52.122;9.952;2023-07-20T09:15:28;100368.66;;;17.13;80.85
13705;BME280;6924;52.122;9.952;2023-07-20T09:17:55;100366.66;;;17.30;79.91
13705;BME280;6924;52.122;9.952;2023-07-20T09:20:22;100363.91;;;17.33;79.12
13705;BME280;6924;52.122;9.952;2023-07-20T09:22:51;100365.84;;;17.61;83.41
13705;BME280;6924;52.122;9.952;2023-07-20T09:25:20;100364.56;;;17.74;76.26
13705;BME280;6924;52.122;9.952;2023-07-20T09:27:47;100360.06;;;17.73;75.60
13705;BME280;6924;52.122;9.952;2023-07-20T09:30:15;100373.16;;;17.74;77.44
13705;BME280;6924;52.122;9.952;2023-07-20T09:32:43;100373.53;;;17.73;70.47
13705;BME280;6924;52.122;9.952;2023-07-20T09:35:13;100370.25;;;17.87;76.79
13705;BME280;6924;52.122;9.952;2023-07-20T09:37:46;100366.66;;;18.06;75.62
13705;BME280;6924;52.122;9.952;2023-07-20T09:40:15;100369.69;;;18.13;74.91
13705;BME280;6924;52.122;9.952;2023-07-20T09:42:44;100380.19;;;18.25;73.58
13705;BME280;6924;52.122;9.952;2023-07-20T09:45:11;100375.84;;;18.31;75.63
13705;BME280;6924;52.122;9.952;2023-07-20T09:47:39;100381.56;;;18.31;67.60
13705;BME280;6924;52.122;9.952;2023-07-20T09:50:07;100390.00;;;18.24;69.26
13705;BME280;6924;52.122;9.952;2023-07-20T09:52:37;100384.44;;;18.31;67.90
13705;BME280;6924;52.122;9.952;2023-07-20T09:55:06;100379.69;;;18.54;71.66
13705;BME280;6924;52.122;9.952;2023-07-20T09:57:33;100380.88;;;18.53;65.02
13705;BME280;6924;52.122;9.952;2023-07-20T10:00:06;100369.91;;;18.75;69.81
13705;BME280;6924;52.122;9.952;2023-07-20T10:02:42;100372.94;;;18.82;64.02
13705;BME280;6924;52.122;9.952;2023-07-20T10:05:11;100373.09;;;19.09;66.27
13705;BME280;6924;52.122;9.952;2023-07-20T10:07:43;100375.28;;;19.15;63.63
13705;BME280;6924;52.122;9.952;2023-07-20T10:10:11;100371.81;;;19.06;58.82
13705;BME280;6924;52.122;9.952;2023-07-20T10:12:40;100367.81;;;19.11;60.83
13705;BME280;6924;52.122;9.952;2023-07-20T10:15:16;100370.69;;;19.11;58.16
13705;BME280;6924;52.122;9.952;2023-07-20T10:17:49;100374.38;;;19.31;56.28
13705;BME280;6924;52.122;9.952;2023-07-20T10:20:20;100369.28;;;19.44;56.70
13705;BME280;6924;52.122;9.952;2023-07-20T10:22:50;100368.38;;;19.59;57.14
13705;BME280;6924;52.122;9.952;2023-07-20T10:25:20;100360.53;;;19.56;54.58
13705;BME280;6924;52.122;9.952;2023-07-20T10:27:49;100357.34;;;19.61;56.94
13705;BME280;6924;52.122;9.952;2023-07-20T10:30:19;100361.63;;;19.71;52.37
13705;BME280;6924;52.122;9.952;2023-07-20T10:32:46;100366.50;;;19.90;55.94
13705;BME280;6924;52.122;9.952;2023-07-20T10:35:17;100357.53;;;19.95;53.90
13705;BME280;6924;52.122;9.952;2023-07-20T10:37:48;100353.78;;;20.14;54.41
13705;BME280;6924;52.122;9.952;2023-07-20T10:40:28;100355.03;;;20.16;53.57
13705;BME280;6924;52.122;9.952;2023-07-20T10:43:00;100349.41;;;20.23;51.06
13705;BME280;6924;52.122;9.952;2023-07-20T10:45:40;100354.66;;;20.44;56.73
13705;BME280;6924;52.122;9.952;2023-07-20T10:48:14;100351.41;;;20.46;50.66
13705;BME280;6924;52.122;9.952;2023-07-20T10:50:45;100347.81;;;20.53;54.58
13705;BME280;6924;52.122;9.952;2023-07-20T10:53:13;100345.41;;;20.85;55.67
13705;BME280;6924;52.122;9.952;2023-07-20T10:55:41;100352.59;;;21.02;48.98
13705;BME280;6924;52.122;9.952;2023-07-20T10:58:09;100344.03;;;21.05;50.71
13705;BME280;6924;52.122;9.952;2023-07-20T11:03:34;100340.00;;;21.14;52.64
13705;BME280;6924;52.122;9.952;2023-07-20T11:06:31;100355.81;;;21.31;50.69
13705;BME280;6924;52.122;9.952;2023-07-20T11:09:05;100342.09;;;21.51;52.43
13705;BME280;6924;52.122;9.952;2023-07-20T11:11:33;100339.78;;;21.67;50.41
13705;BME280;6924;52.122;9.952;2023-07-20T11:14:03;100331.47;;;21.58;47.61
13705;BME280;6924;52.122;9.952;2023-07-20T11:16:37;100337.34;;;21.69;47.92
13705;BME280;6924;52.122;9.952;2023-07-20T11:19:06;100350.09;;;21.68;49.17
13705;BME280;6924;52.122;9.952;2023-07-20T11:21:44;100339.22;;;21.51;49.45
13705;BME280;6924;52.122;9.952;2023-07-20T11:24:11;100327.00;;;21.27;47.26
13705;BME280;6924;52.122;9.952;2023-07-20T11:26:42;100335.75;;;21.34;48.65
13705;BME280;6924;52.122;9.952;2023-07-20T11:29:13;100335.31;;;21.32;50.05
13705;BME280;6924;52.122;9.952;2023-07-20T11:31:41;100342.97;;;21.58;48.79
13705;BME280;6924;52.122;9.952;2023-07-20T11:34:11;100338.78;;;21.49;45.24
13705;BME280;6924;52.122;9.952;2023-07-20T11:36:39;100342.31;;;21.72;48.39
13705;BME280;6924;52.122;9.952;2023-07-20T11:39:08;100327.31;;;21.18;46.35
13705;BME280;6924;52.122;9.952;2023-07-20T11:41:35;100326.13;;;21.23;46.86
13705;BME280;6924;52.122;9.952;2023-07-20T11:44:03;100335.72;;;21.00;46.41
13705;BME280;6924;52.122;9.952;2023-07-20T11:46:31;100337.78;;;21.00;48.28
13705;BME280;6924;52.122;9.952;2023-07-20T11:48:59;100330.84;;;21.04;48.09
13705;BME280;6924;52.122;9.952;2023-07-20T11:51:28;100331.38;;;21.14;50.35
13705;BME280;6924;52.122;9.952;2023-07-20T11:53:56;100343.69;;;21.14;49.49
13705;BME280;6924;52.122;9.952;2023-07-20T11:56:23;100324.66;;;20.99;47.07
13705;BME280;6924;52.122;9.952;2023-07-20T11:58:50;100327.09;;;21.00;48.80
13705;BME280;6924;52.122;9.952;2023-07-20T12:01:17;100324.75;;;20.76;47.29
13705;BME280;6924;52.122;9.952;2023-07-20T12:03:45;100341.91;;;20.69;47.00
13705;BME280;6924;52.122;9.952;2023-07-20T12:06:14;100336.31;;;20.53;47.72
13705;BME280;6924;52.122;9.952;2023-07-20T12:08:43;100338.69;;;20.47;48.42
13705;BME280;6924;52.122;9.952;2023-07-20T12:11:10;100325.03;;;20.40;50.30
13705;BME280;6924;52.122;9.952;2023-07-20T12:13:38;100325.31;;;20.32;52.09
13705;BME280;6924;52.122;9.952;2023-07-20T12:16:11;100330.28;;;20.08;52.03
13705;BME280;6924;52.122;9.952;2023-07-20T12:18:38;100328.91;;;19.98;51.55
13705;BME280;6924;52.122;9.952;2023-07-20T12:21:06;100336.63;;;19.94;52.85
13705;BME280;6924;52.122;9.952;2023-07-20T12:23:37;100338.13;;;19.85;51.46
13705;BME280;6924;52.122;9.952;2023-07-20T12:26:07;100336.41;;;19.80;52.64
13705;BME280;6924;52.122;9.952;2023-07-20T12:28:38;100330.91;;;19.71;51.65
13705;BME280;6924;52.122;9.952;2023-07-20T12:31:05;100329.50;;;19.85;53.47
13705;BME280;6924;52.122;9.952;2023-07-20T12:33:32;100335.38;;;19.92;52.67
13705;BME280;6924;52.122;9.952;2023-07-20T12:35:59;100327.22;;;19.97;51.23
13705;BME280;6924;52.122;9.952;2023-07-20T12:38:26;100323.06;;;20.18;53.45
13705;BME280;6924;52.122;9.952;2023-07-20T12:40:53;100327.31;;;20.28;49.76
13705;BME280;6924;52.122;9.952;2023-07-20T12:43:22;100325.78;;;20.34;52.50
13705;BME280;6924;52.122;9.952;2023-07-20T12:45:49;100324.31;;;20.47;52.92
13705;BME280;6924;52.122;9.952;2023-07-20T12:48:15;100320.91;;;20.64;53.92
13705;BME280;6924;52.122;9.952;2023-07-20T12:50:42;100317.66;;;20.66;51.02
13705;BME280;6924;52.122;9.952;2023-07-20T12:53:08;100321.69;;;20.61;49.64
13705;BME280;6924;52.122;9.952;2023-07-20T12:55:35;100315.88;;;20.58;49.44
13705;BME280;6924;52.122;9.952;2023-07-20T12:58:02;100311.50;;;20.68;51.37
13705;BME280;6924;52.122;9.952;2023-07-20T13:00:30;100312.38;;;20.72;51.62
13705;BME280;6924;52.122;9.952;2023-07-20T13:02:57;100308.75;;;20.78;50.70
13705;BME280;6924;52.122;9.952;2023-07-20T13:05:23;100316.19;;;20.79;50.44